sensor_id;sensor_type;location;lat;lon;timestamp;pressure;altitude;pressure_sealevel;temperature;humidity
32474;BME280;41885;53.190;7.984;2022-09-28T00:01:45;99563.13;;;7.87;86.63
32474;BME280;41885;53.190;7.984;2022-09-28T00:05:47;99553.59;;;7.93;86.35
32474;BME280;41885;53.190;7.984;2022-09-28T00:09:53;99552.78;;;7.92;86.39
32474;BME280;41885;53.190;7.984;2022-09-28T00:13:58;99549.47;;;7.90;86.25
32474;BME280;41885;53.190;7.984;2022-09-28T00:18:01;99553.50;;;7.86;86.72
32474;BME280;41885;53.190;7.984;2022-09-28T00:22:03;99545.91;;;7.75;86.89
32474;BME280;41885;53.190;7.984;2022-09-28T00:26:06;99547.50;;;7.84;87.05
32474;BME280;41885;53.190;7.984;2022-09-28T00:30:09;99557.81;;;7.87;86.78
32474;BME280;41885;53.190;7.984;2022-09-28T00:34:15;99543.31;;;7.90;86.55
32474;BME280;41885;53.190;7.984;2022-09-28T00:38:17;99546.66;;;7.92;86.67
32474;BME280;41885;53.190;7.984;2022-09-28T00:42:22;99537.19;;;7.89;87.02
32474;BME280;41885;53.190;7.984;2022-09-28T00:46:30;99540.84;;;7.88;87.35
32474;BME280;41885;53.190;7.984;2022-09-28T00:50:36;99540.38;;;7.85;87.26
32474;BME280;41885;53.190;7.984;2022-09-28T00:54:40;99540.75;;;7.82;87.17
32474;BME280;41885;53.190;7.984;2022-09-28T00:58:46;99532.09;;;7.80;86.90
32474;BME280;41885;53.190;7.984;2022-09-28T01:02:50;99536.94;;;7.76;87.35
32474;BME280;41885;53.190;7.984;2022-09-28T01:06:54;99528.97;;;7.76;86.72
32474;BME280;41885;53.190;7.984;2022-09-28T01:10:56;99534.16;;;7.69;86.98
32474;BME280;41885;53.190;7.984;2022-09-28T01:15:02;99508.66;;;7.60;87.04
32474;BME280;41885;53.190;7.984;2022-09-28T01:19:12;99526.34;;;7.68;87.19
32474;BME280;41885;53.190;7.984;2022-09-28T01:23:41;99524.72;;;7.67;87.74
32474;BME280;41885;53.190;7.984;2022-09-28T01:27:47;99526.06;;;7.63;86.96
32474;BME280;41885;53.190;7.984;2022-09-28T01:32:02;99518.97;;;7.55;87.28
32474;BME280;41885;53.190;7.984;2022-09-28T01:36:10;99513.00;;;7.53;87.27
32474;BME280;41885;53.190;7.984;2022-09-28T01:40:14;99517.78;;;7.58;87.22
32474;BME280;41885;53.190;7.984;2022-09-28T01:44:22;99507.97;;;7.58;86.90
32474;BME280;41885;53.190;7.984;2022-09-28T01:48:31;99505.19;;;7.52;87.56
32474;BME280;41885;53.190;7.984;2022-09-28T01:52:40;99505.28;;;7.66;87.63
32474;BME280;41885;53.190;7.984;2022-09-28T01:56:49;99503.03;;;7.78;87.42
32474;BME280;41885;53.190;7.984;2022-09-28T02:00:56;99496.16;;;7.84;87.58
32474;BME280;41885;53.190;7.984;2022-09-28T02:05:05;99496.84;;;7.86;87.55
32474;BME280;41885;53.190;7.984;2022-09-28T02:09:12;99486.66;;;7.89;87.41
32474;BME280;41885;53.190;7.984;2022-09-28T02:13:21;99495.81;;;7.87;87.15
32474;BME280;41885;53.190;7.984;2022-09-28T02:17:26;99492.53;;;7.85;87.39
32474;BME280;41885;53.190;7.984;2022-09-28T02:21:31;99480.56;;;7.81;86.97
32474;BME280;41885;53.190;7.984;2022-09-28T02:25:40;99489.88;;;7.85;87.30
32474;BME280;41885;53.190;7.984;2022-09-28T02:29:44;99488.03;;;7.85;87.51
32474;BME280;41885;53.190;7.984;2022-09-28T02:33:48;99484.34;;;7.86;87.00
32474;BME280;41885;53.190;7.984;2022-09-28T02:37:52;99483.69;;;7.84;87.10
32474;BME280;41885;53.190;7.984;2022-09-28T02:42:06;99476.06;;;7.81;87.45
32474;BME280;41885;53.190;7.984;2022-09-28T02:46:21;99487.41;;;7.75;87.16
32474;BME280;41885;53.190;7.984;2022-09-28T02:50:40;99489.81;;;7.70;87.78
32474;BME280;41885;53.190;7.984;2022-09-28T02:54:57;99490.44;;;7.72;87.45
32474;BME280;41885;53.190;7.984;2022-09-28T02:59:09;99488.97;;;7.69;87.36
32474;BME280;41885;53.190;7.984;2022-09-28T03:03:18;99490.03;;;7.60;87.69
32474;BME280;41885;53.190;7.984;2022-09-28T03:07:25;99490.84;;;7.61;87.77
32474;BME280;41885;53.190;7.984;2022-09-28T03:11:32;99488.75;;;7.56;87.63
32474;BME280;41885;53.190;7.984;2022-09-28T03:15:36;99495.75;;;7.49;87.34
32474;BME280;41885;53.190;7.984;2022-09-28T03:19:38;99496.56;;;7.50;87.60
32474;BME280;41885;53.190;7.984;2022-09-28T03:23:41;99497.22;;;7.52;87.23
32474;BME280;41885;53.190;7.984;2022-09-28T03:27:44;99490.44;;;7.49;86.96
32474;BME280;41885;53.190;7.984;2022-09-28T03:31:47;99484.16;;;7.42;87.61
32474;BME280;41885;53.190;7.984;2022-09-28T03:35:50;99495.81;;;7.41;87.54
32474;BME280;41885;53.190;7.984;2022-09-28T03:39:54;99489.31;;;7.43;87.48
32474;BME280;41885;53.190;7.984;2022-09-28T03:43:56;99498.75;;;7.46;87.29
32474;BME280;41885;53.190;7.984;2022-09-28T03:48:00;99501.75;;;7.43;87.50
32474;BME280;41885;53.190;7.984;2022-09-28T03:52:02;99504.25;;;7.44;87.49
32474;BME280;41885;53.190;7.984;2022-09-28T03:56:08;99490.31;;;7.42;87.21
32474;BME280;41885;53.190;7.984;2022-09-28T04:00:12;99488.94;;;7.46;87.09
32474;BME280;41885;53.190;7.984;2022-09-28T04:04:15;99501.25;;;7.48;87.12
32474;BME280;41885;53.190;7.984;2022-09-28T04:08:19;99504.88;;;7.46;87.58
32474;BME280;41885;53.190;7.984;2022-09-28T04:12:22;99498.03;;;7.52;87.08
32474;BME280;41885;53.190;7.984;2022-09-28T04:16:24;99500.91;;;7.51;87.04
32474;BME280;41885;53.190;7.984;2022-09-28T04:20:42;99498.41;;;7.49;87.38
32474;BME280;41885;53.190;7.984;2022-09-28T04:24:48;99507.84;;;7.52;87.35
32474;BME280;41885;53.190;7.984;2022-09-28T04:28:53;99502.03;;;7.56;87.72
32474;BME280;41885;53.190;7.984;2022-09-28T04:33:12;99501.81;;;7.66;87.68
32474;BME280;41885;53.190;7.984;2022-09-28T04:37:14;99498.59;;;7.71;87.13
32474;BME280;41885;53.190;7.984;2022-09-28T04:41:17;99506.38;;;7.72;87.58
32474;BME280;41885;53.190;7.984;2022-09-28T04:45:22;99501.06;;;7.72;87.04
32474;BME280;41885;53.190;7.984;2022-09-28T04:49:26;99505.50;;;7.80;87.81
32474;BME280;41885;53.190;7.984;2022-09-28T04:53:48;99500.78;;;7.90;87.41
32474;BME280;41885;53.190;7.984;2022-09-28T04:57:51;99495.47;;;7.90;87.35
32474;BME280;41885;53.190;7.984;2022-09-28T05:01:54;99501.72;;;7.97;87.85
32474;BME280;41885;53.190;7.984;2022-09-28T05:06:15;99500.38;;;8.01;87.44
32474;BME280;41885;53.190;7.984;2022-09-28T05:10:19;99505.81;;;8.08;87.93
32474;BME280;41885;53.190;7.984;2022-09-28T05:14:21;99499.41;;;8.17;87.20
32474;BME280;41885;53.190;7.984;2022-09-28T05:18:24;99507.66;;;8.22;87.05
32474;BME280;41885;53.190;7.984;2022-09-28T05:22:35;99499.31;;;8.25;87.30
32474;BME280;41885;53.190;7.984;2022-09-28T05:26:38;99504.75;;;8.32;87.31
32474;BME280;41885;53.190;7.984;2022-09-28T05:30:43;99507.53;;;8.38;87.51
32474;BME280;41885;53.190;7.984;2022-09-28T05:34:59;99501.13;;;8.48;87.61
32474;BME280;41885;53.190;7.984;2022-09-28T05:39:11;99505.72;;;8.54;87.26
32474;BME280;41885;53.190;7.984;2022-09-28T05:43:13;99507.66;;;8.60;86.96
32474;BME280;41885;53.190;7.984;2022-09-28T05:47:15;99501.63;;;8.66;86.83
32474;BME280;41885;53.190;7.984;2022-09-28T05:51:19;99496.28;;;8.66;86.89
32474;BME280;41885;53.190;7.984;2022-09-28T05:55:21;99498.59;;;8.69;87.30
32474;BME280;41885;53.190;7.984;2022-09-28T05:59:23;99502.25;;;8.68;87.18
32474;BME280;41885;53.190;7.984;2022-09-28T06:03:25;99501.63;;;8.66;87.29
32474;BME280;41885;53.190;7.984;2022-09-28T06:07:29;99494.00;;;8.63;87.07
32474;BME280;41885;53.190;7.984;2022-09-28T06:11:31;99507.09;;;8.65;87.11
32474;BME280;41885;53.190;7.984;2022-09-28T06:15:40;99506.94;;;8.66;87.38
32474;BME280;41885;53.190;7.984;2022-09-28T06:19:44;99502.06;;;8.70;87.72
32474;BME280;41885;53.190;7.984;2022-09-28T06:24:06;99504.38;;;8.73;87.53
32474;BME280;41885;53.190;7.984;2022-09-28T06:28:11;99510.34;;;8.75;88.13
32474;BME280;41885;53.190;7.984;2022-09-28T06:32:13;99497.75;;;8.69;88.20
32474;BME280;41885;53.190;7.984;2022-09-28T06:36:17;99514.28;;;8.79;88.58
32474;BME280;41885;53.190;7.984;2022-09-28T06:40:22;99520.00;;;8.91;88.82
32474;BME280;41885;53.190;7.984;2022-09-28T06:44:24;99515.00;;;9.02;88.66
32474;BME280;41885;53.190;7.984;2022-09-28T06:49:01;99524.00;;;9.16;89.00
32474;BME280;41885;53.190;7.984;2022-09-28T06:53:24;99533.06;;;9.37;89.27
32474;BME280;41885;53.190;7.984;2022-09-28T06:57:33;99536.59;;;9.59;89.16
32474;BME280;41885;53.190;7.984;2022-09-28T07:01:35;99538.66;;;9.78;88.66
32474;BME280;41885;53.190;7.984;2022-09-28T07:05:43;99537.66;;;10.00;88.86
32474;BME280;41885;53.190;7.984;2022-09-28T07:10:08;99546.28;;;10.24;88.69
32474;BME280;41885;53.190;7.984;2022-09-28T07:14:31;99553.94;;;10.27;87.89
32474;BME280;41885;53.190;7.984;2022-09-28T07:18:33;99552.16;;;10.34;88.08
32474;BME280;41885;53.190;7.984;2022-09-28T07:22:35;99562.34;;;10.52;88.26
32474;BME280;41885;53.190;7.984;2022-09-28T07:26:39;99562.91;;;10.69;88.09
32474;BME280;41885;53.190;7.984;2022-09-28T07:30:55;99567.66;;;10.74;87.69
32474;BME280;41885;53.190;7.984;2022-09-28T07:35:32;99568.88;;;10.71;87.61
32474;BME280;41885;53.190;7.984;2022-09-28T07:39:34;99578.13;;;10.75;87.86
32474;BME280;41885;53.190;7.984;2022-09-28T07:43:56;99583.94;;;10.79;87.65
32474;BME280;41885;53.190;7.984;2022-09-28T07:48:00;99579.22;;;10.81;87.43
32474;BME280;41885;53.190;7.984;2022-09-28T07:52:22;99587.47;;;10.86;87.40
32474;BME280;41885;53.190;7.984;2022-09-28T07:56:54;99588.59;;;10.98;87.58
32474;BME280;41885;53.190;7.984;2022-09-28T08:01:11;99589.09;;;11.15;87.72
32474;BME280;41885;53.190;7.984;2022-09-28T08:05:15;99586.84;;;11.18;87.12
32474;BME280;41885;53.190;7.984;2022-09-28T08:09:17;99592.03;;;11.20;87.39
32474;BME280;41885;53.190;7.984;2022-09-28T08:13:37;99589.59;;;11.32;87.43
32474;BME280;41885;53.190;7.984;2022-09-28T08:18:06;99589.06;;;11.50;86.65
32474;BME280;41885;53.190;7.984;2022-09-28T08:22:09;99607.03;;;11.62;86.93
32474;BME280;41885;53.190;7.984;2022-09-28T08:26:13;99599.69;;;11.78;86.50
32474;BME280;41885;53.190;7.984;2022-09-28T08:30:15;99603.66;;;11.95;86.43
32474;BME280;41885;53.190;7.984;2022-09-28T08:34:40;99610.09;;;12.07;85.57
32474;BME280;41885;53.190;7.984;2022-09-28T08:38:56;99610.34;;;12.52;86.68
32474;BME280;41885;53.190;7.984;2022-09-28T08:43:25;99623.34;;;13.02;85.21
32474;BME280;41885;53.190;7.984;2022-09-28T08:47:50;99627.03;;;13.21;84.67
32474;BME280;41885;53.190;7.984;2022-09-28T08:52:34;99627.63;;;13.36;84.16
32474;BME280;41885;53.190;7.984;2022-09-28T08:57:01;99632.72;;;13.58;83.11
32474;BME280;41885;53.190;7.984;2022-09-28T09:01:06;99639.25;;;13.82;82.79
32474;BME280;41885;53.190;7.984;2022-09-28T09:05:12;99648.00;;;14.40;82.27
32474;BME280;41885;53.190;7.984;2022-09-28T09:09:45;99648.03;;;14.97;81.25
32474;BME280;41885;53.190;7.984;2022-09-28T09:14:24;99654.41;;;15.03;77.44
32474;BME280;41885;53.190;7.984;2022-09-28T09:18:35;99658.28;;;15.07;79.30
32474;BME280;41885;53.190;7.984;2022-09-28T09:23:11;99659.69;;;15.53;79.24
32474;BME280;41885;53.190;7.984;2022-09-28T09:27:35;99654.00;;;15.98;77.42
32474;BME280;41885;53.190;7.984;2022-09-28T09:31:54;99665.53;;;16.35;77.19
32474;BME280;41885;53.190;7.984;2022-09-28T09:36:13;99661.75;;;16.66;76.84
32474;BME280;41885;53.190;7.984;2022-09-28T09:41:01;99662.28;;;16.87;75.37
32474;BME280;41885;53.190;7.984;2022-09-28T09:45:38;99664.41;;;17.32;76.75
32474;BME280;41885;53.190;7.984;2022-09-28T09:50:09;99664.59;;;17.89;80.69
32474;BME280;41885;53.190;7.984;2022-09-28T09:54:18;99665.56;;;18.40;83.04
32474;BME280;41885;53.190;7.984;2022-09-28T09:58:26;99673.34;;;18.82;82.54
32474;BME280;41885;53.190;7.984;2022-09-28T10:02:41;99670.53;;;19.44;81.78
32474;BME280;41885;53.190;7.984;2022-09-28T10:07:03;99672.19;;;20.33;80.45
32474;BME280;41885;53.190;7.984;2022-09-28T10:11:10;99672.84;;;21.37;78.83
32474;BME280;41885;53.190;7.984;2022-09-28T10:15:22;99658.03;;;22.28;76.47
32474;BME280;41885;53.190;7.984;2022-09-28T10:19:56;99658.16;;;23.95;75.45
32474;BME280;41885;53.190;7.984;2022-09-28T10:24:28;99661.34;;;25.55;67.67
32474;BME280;41885;53.190;7.984;2022-09-28T10:28:38;99657.25;;;26.19;70.01
32474;BME280;41885;53.190;7.984;2022-09-28T10:32:42;99660.53;;;27.10;69.19
32474;BME280;41885;53.190;7.984;2022-09-28T10:36:48;99658.84;;;26.96;68.00
32474;BME280;41885;53.190;7.984;2022-09-28T10:40:54;99667.78;;;26.87;68.30
32474;BME280;41885;53.190;7.984;2022-09-28T10:45:19;99666.78;;;26.97;66.49
32474;BME280;41885;53.190;7.984;2022-09-28T10:49:24;99664.75;;;26.32;65.76
32474;BME280;41885;53.190;7.984;2022-09-28T10:53:30;99671.19;;;26.23;67.73
32474;BME280;41885;53.190;7.984;2022-09-28T10:57:50;99662.19;;;26.93;67.88
32474;BME280;41885;53.190;7.984;2022-09-28T11:01:55;99665.06;;;27.75;66.98
32474;BME280;41885;53.190;7.984;2022-09-28T11:06:00;99673.84;;;27.77;66.07
32474;BME280;41885;53.190;7.984;2022-09-28T11:10:04;99667.63;;;26.79;63.37
32474;BME280;41885;53.190;7.984;2022-09-28T11:14:23;99675.69;;;25.41;53.42
32474;BME280;41885;53.190;7.984;2022-09-28T11:18:29;99671.59;;;24.36;62.21
32474;BME280;41885;53.190;7.984;2022-09-28T11:22:38;99664.78;;;23.63;64.11
32474;BME280;41885;53.190;7.984;2022-09-28T11:26:44;99663.03;;;24.03;66.48
32474;BME280;41885;53.190;7.984;2022-09-28T11:30:54;99674.28;;;24.86;67.87
32474;BME280;41885;53.190;7.984;2022-09-28T11:34:58;99671.66;;;25.63;67.25
32474;BME280;41885;53.190;7.984;2022-09-28T11:39:08;99666.75;;;26.08;64.10
32474;BME280;41885;53.190;7.984;2022-09-28T11:43:33;99669.47;;;26.08;61.41
32474;BME280;41885;53.190;7.984;2022-09-28T11:47:48;99675.03;;;25.79;57.67
32474;BME280;41885;53.190;7.984;2022-09-28T11:51:55;99678.50;;;25.60;59.19
32474;BME280;41885;53.190;7.984;2022-09-28T11:56:03;99677.34;;;26.33;58.46
32474;BME280;41885;53.190;7.984;2022-09-28T12:00:13;99674.91;;;26.51;55.65
32474;BME280;41885;53.190;7.984;2022-09-28T12:04:25;99676.84;;;25.88;54.84
32474;BME280;41885;53.190;7.984;2022-09-28T12:08:33;99676.28;;;25.04;53.87
32474;BME280;41885;53.190;7.984;2022-09-28T12:12:45;99676.50;;;24.44;52.40
32474;BME280;41885;53.190;7.984;2022-09-28T12:16:53;99681.84;;;24.05;52.31
32474;BME280;41885;53.190;7.984;2022-09-28T12:21:08;99681.78;;;23.40;49.01
32474;BME280;41885;53.190;7.984;2022-09-28T12:25:13;99664.91;;;22.56;51.51
32474;BME280;41885;53.190;7.984;2022-09-28T12:29:21;99672.59;;;21.96;52.53
32474;BME280;41885;53.190;7.984;2022-09-28T12:33:25;99675.59;;;21.47;53.05
32474;BME280;41885;53.190;7.984;2022-09-28T12:37:35;99675.50;;;20.95;52.47
32474;BME280;41885;53.190;7.984;2022-09-28T12:41:50;99677.31;;;20.52;52.61
32474;BME280;41885;53.190;7.984;2022-09-28T12:46:08;99675.84;;;20.22;52.79
32474;BME280;41885;53.190;7.984;2022-09-28T12:50:18;99677.03;;;20.04;53.46
32474;BME280;41885;53.190;7.984;2022-09-28T12:54:57;99664.91;;;19.90;51.49
32474;BME280;41885;53.190;7.984;2022-09-28T12:59:14;99682.19;;;19.84;52.54
32474;BME280;41885;53.190;7.984;2022-09-28T13:03:49;99677.72;;;19.56;52.14
32474;BME280;41885;53.190;7.984;2022-09-28T13:07:54;99682.72;;;19.25;49.91
32474;BME280;41885;53.190;7.984;2022-09-28T13:12:31;99684.69;;;19.13;51.33
32474;BME280;41885;53.190;7.984;2022-09-28T13:16:39;99672.78;;;19.14;54.00
32474;BME280;41885;53.190;7.984;2022-09-28T13:21:07;99684.19;;;19.16;53.01
32474;BME280;41885;53.190;7.984;2022-09-28T13:25:13;99675.00;;;19.17;53.80
32474;BME280;41885;53.190;7.984;2022-09-28T13:29:18;99675.44;;;19.09;53.51
32474;BME280;41885;53.190;7.984;2022-09-28T13:33:28;99675.59;;;19.02;53.60
32474;BME280;41885;53.190;7.984;2022-09-28T13:37:33;99669.59;;;18.83;53.70
32474;BME280;41885;53.190;7.984;2022-09-28T13:41:36;99674.63;;;18.63;54.15
32474;BME280;41885;53.190;7.984;2022-09-28T13:45:51;99676.63;;;18.39;53.57
32474;BME280;41885;53.190;7.984;2022-09-28T13:50:09;99673.38;;;18.25;54.07
32474;BME280;41885;53.190;7.984;2022-09-28T13:54:24;99680.25;;;18.16;54.48
32474;BME280;41885;53.190;7.984;2022-09-28T13:58:35;99679.19;;;18.17;54.48
32474;BME280;41885;53.190;7.984;2022-09-28T14:02:44;99683.53;;;18.18;54.39
32474;BME280;41885;53.190;7.984;2022-09-28T14:06:49;99687.63;;;18.20;54.39
32474;BME280;41885;53.190;7.984;2022-09-28T14:10:54;99689.91;;;18.11;54.32
32474;BME280;41885;53.190;7.984;2022-09-28T14:14:58;99682.56;;;17.83;54.50
32474;BME280;41885;53.190;7.984;2022-09-28T14:19:06;99685.88;;;17.50;55.14
32474;BME280;41885;53.190;7.984;2022-09-28T14:28:24;99693.16;;;17.14;55.93
32474;BME280;41885;53.190;7.984;2022-09-28T14:32:32;99702.88;;;17.04;56.26
32474;BME280;41885;53.190;7.984;2022-09-28T14:36:41;99708.63;;;16.95;56.29
32474;BME280;41885;53.190;7.984;2022-09-28T14:41:09;99706.50;;;16.86;56.27
32474;BME280;41885;53.190;7.984;2022-09-28T14:45:32;99706.25;;;16.76;56.77
32474;BME280;41885;53.190;7.984;2022-09-28T14:49:44;99702.66;;;16.63;55.99
32474;BME280;41885;53.190;7.984;2022-09-28T14:53:50;99708.09;;;16.45;56.74
32474;BME280;41885;53.190;7.984;2022-09-28T14:57:56;99703.56;;;16.27;57.03
32474;BME280;41885;53.190;7.984;2022-09-28T15:02:04;99709.59;;;16.11;57.45
32474;BME280;41885;53.190;7.984;2022-09-28T15:06:13;99702.66;;;16.03;57.50
32474;BME280;41885;53.190;7.984;2022-09-28T15:10:26;99714.69;;;16.00;58.08
32474;BME280;41885;53.190;7.984;2022-09-28T15:14:44;99717.00;;;15.97;57.74
32474;BME280;41885;53.190;7.984;2022-09-28T15:19:06;99715.91;;;15.86;57.90
32474;BME280;41885;53.190;7.984;2022-09-28T15:23:24;99708.72;;;15.80;58.11
32474;BME280;41885;53.190;7.984;2022-09-28T15:27:34;99705.78;;;15.81;58.77
32474;BME280;41885;53.190;7.984;2022-09-28T15:31:37;99711.09;;;15.88;58.19
32474;BME280;41885;53.190;7.984;2022-09-28T15:35:38;99714.59;;;15.89;58.24
32474;BME280;41885;53.190;7.984;2022-09-28T15:39:40;99718.72;;;15.91;58.22
32474;BME280;41885;53.190;7.984;2022-09-28T15:44:03;99712.38;;;15.86;58.51
32474;BME280;41885;53.190;7.984;2022-09-28T15:48:27;99713.88;;;15.81;58.50
32474;BME280;41885;53.190;7.984;2022-09-28T15:52:36;99728.53;;;15.86;58.39
32474;BME280;41885;53.190;7.984;2022-09-28T15:56:49;99715.91;;;15.86;58.25
32474;BME280;41885;53.190;7.984;2022-09-28T16:01:19;99730.19;;;15.87;57.88
32474;BME280;41885;53.190;7.984;2022-09-28T16:05:31;99732.88;;;15.87;58.40
32474;BME280;41885;53.190;7.984;2022-09-28T16:09:52;99737.44;;;15.86;58.40
32474;BME280;41885;53.190;7.984;2022-09-28T16:13:56;99731.00;;;15.87;58.07
32474;BME280;41885;53.190;7.984;2022-09-28T16:18:04;99741.34;;;15.90;58.77
32474;BME280;41885;53.190;7.984;2022-09-28T16:22:13;99745.00;;;15.96;58.89
32474;BME280;41885;53.190;7.984;2022-09-28T16:26:28;99744.41;;;15.94;58.98
32474;BME280;41885;53.190;7.984;2022-09-28T16:30:32;99749.41;;;15.90;59.07
32474;BME280;41885;53.190;7.984;2022-09-28T16:34:36;99744.09;;;15.84;59.63
32474;BME280;41885;53.190;7.984;2022-09-28T16:38:38;99745.00;;;15.77;60.03
32474;BME280;41885;53.190;7.984;2022-09-28T16:42:42;99744.50;;;15.62;60.22
32474;BME280;41885;53.190;7.984;2022-09-28T16:46:44;99748.13;;;15.49;60.70
32474;BME280;41885;53.190;7.984;2022-09-28T16:50:49;99749.25;;;15.42;61.40
32474;BME280;41885;53.190;7.984;2022-09-28T16:54:51;99756.53;;;15.34;61.53
32474;BME280;41885;53.190;7.984;2022-09-28T16:59:19;99757.88;;;15.25;61.66
32474;BME280;41885;53.190;7.984;2022-09-28T17:03:22;99763.97;;;15.14;61.91
32474;BME280;41885;53.190;7.984;2022-09-28T17:07:25;99765.88;;;15.07;62.13
32474;BME280;41885;53.190;7.984;2022-09-28T17:11:27;99770.50;;;15.00;62.51
32474;BME280;41885;53.190;7.984;2022-09-28T17:15:29;99769.66;;;14.99;62.39
32474;BME280;41885;53.190;7.984;2022-09-28T17:19:31;99766.19;;;14.92;62.63
32474;BME280;41885;53.190;7.984;2022-09-28T17:23:34;99770.16;;;14.83;63.33
32474;BME280;41885;53.190;7.984;2022-09-28T17:27:37;99777.47;;;14.76;63.58
32474;BME280;41885;53.190;7.984;2022-09-28T17:31:41;99778.31;;;14.70;64.03
32474;BME280;41885;53.190;7.984;2022-09-28T17:35:43;99772.16;;;14.62;63.97
32474;BME280;41885;53.190;7.984;2022-09-28T17:39:46;99773.44;;;14.53;64.42
32474;BME280;41885;53.190;7.984;2022-09-28T17:43:48;99780.69;;;14.46;64.35
32474;BME280;41885;53.190;7.984;2022-09-28T17:47:50;99781.56;;;14.40;64.36
32474;BME280;41885;53.190;7.984;2022-09-28T17:51:52;99787.41;;;14.24;64.96
32474;BME280;41885;53.190;7.984;2022-09-28T17:55:55;99777.09;;;14.14;65.31
32474;BME280;41885;53.190;7.984;2022-09-28T17:59:57;99786.63;;;14.03;65.74
32474;BME280;41885;53.190;7.984;2022-09-28T18:03:59;99785.63;;;13.91;65.61
32474;BME280;41885;53.190;7.984;2022-09-28T18:08:02;99785.66;;;13.78;66.15
32474;BME280;41885;53.190;7.984;2022-09-28T18:12:05;99792.91;;;13.57;66.62
32474;BME280;41885;53.190;7.984;2022-09-28T18:16:07;99797.25;;;13.38;66.44
32474;BME280;41885;53.190;7.984;2022-09-28T18:20:11;99801.13;;;13.22;66.98
32474;BME280;41885;53.190;7.984;2022-09-28T18:24:13;99800.47;;;13.00;67.23
32474;BME280;41885;53.190;7.984;2022-09-28T18:28:16;99806.22;;;12.84;67.22
32474;BME280;41885;53.190;7.984;2022-09-28T18:32:18;99808.25;;;12.69;68.43
32474;BME280;41885;53.190;7.984;2022-09-28T18:36:20;99809.25;;;12.54;68.41
32474;BME280;41885;53.190;7.984;2022-09-28T18:40:21;99813.28;;;12.37;68.80
32474;BME280;41885;53.190;7.984;2022-09-28T18:44:25;99816.53;;;12.26;69.39
32474;BME280;41885;53.190;7.984;2022-09-28T18:48:26;99827.59;;;12.16;69.58
32474;BME280;41885;53.190;7.984;2022-09-28T18:52:28;99827.72;;;12.01;69.40
32474;BME280;41885;53.190;7.984;2022-09-28T18:56:30;99839.81;;;11.91;69.52
32474;BME280;41885;53.190;7.984;2022-09-28T19:00:36;99835.16;;;11.78;69.85
32474;BME280;41885;53.190;7.984;2022-09-28T19:04:38;99826.84;;;11.66;70.12
32474;BME280;41885;53.190;7.984;2022-09-28T19:08:41;99837.88;;;11.56;70.12
32474;BME280;41885;53.190;7.984;2022-09-28T19:12:43;99841.81;;;11.39;70.53
32474;BME280;41885;53.190;7.984;2022-09-28T19:16:46;99850.69;;;11.18;71.32
32474;BME280;41885;53.190;7.984;2022-09-28T19:20:49;99851.44;;;11.12;71.26
32474;BME280;41885;53.190;7.984;2022-09-28T19:24:50;99849.53;;;11.06;71.66
32474;BME280;41885;53.190;7.984;2022-09-28T19:28:53;99849.69;;;10.98;71.97
32474;BME280;41885;53.190;7.984;2022-09-28T19:32:57;99859.88;;;10.94;72.32
32474;BME280;41885;53.190;7.984;2022-09-28T19:36:59;99851.81;;;10.87;72.21
32474;BME280;41885;53.190;7.984;2022-09-28T19:41:07;99853.78;;;10.79;72.62
32474;BME280;41885;53.190;7.984;2022-09-28T19:45:09;99856.38;;;10.72;72.55
32474;BME280;41885;53.190;7.984;2022-09-28T19:49:14;99862.63;;;10.64;72.59
32474;BME280;41885;53.190;7.984;2022-09-28T19:53:19;99861.38;;;10.60;72.60
32474;BME280;41885;53.190;7.984;2022-09-28T19:57:21;99863.84;;;10.62;72.60
32474;BME280;41885;53.190;7.984;2022-09-28T20:01:24;99868.84;;;10.50;72.08
32474;BME280;41885;53.190;7.984;2022-09-28T20:05:27;99872.41;;;10.42;72.86
32474;BME280;41885;53.190;7.984;2022-09-28T20:09:30;99868.03;;;10.35;72.92
32474;BME280;41885;53.190;7.984;2022-09-28T20:13:33;99868.91;;;10.27;73.05
32474;BME280;41885;53.190;7.984;2022-09-28T20:17:35;99870.78;;;10.27;73.19
32474;BME280;41885;53.190;7.984;2022-09-28T20:21:38;99874.59;;;10.24;73.56
32474;BME280;41885;53.190;7.984;2022-09-28T20:25:40;99877.19;;;10.17;73.85
32474;BME280;41885;53.190;7.984;2022-09-28T20:29:41;99878.94;;;10.10;73.85
32474;BME280;41885;53.190;7.984;2022-09-28T20:33:43;99878.00;;;10.03;73.88
32474;BME280;41885;53.190;7.984;2022-09-28T20:37:47;99884.91;;;9.97;73.53
32474;BME280;41885;53.190;7.984;2022-09-28T20:41:50;99885.81;;;9.90;73.80
32474;BME280;41885;53.190;7.984;2022-09-28T20:45:54;99891.50;;;9.87;74.33
32474;BME280;41885;53.190;7.984;2022-09-28T20:49:56;99883.56;;;9.78;74.35
32474;BME280;41885;53.190;7.984;2022-09-28T20:53:59;99895.63;;;9.74;74.54
32474;BME280;41885;53.190;7.984;2022-09-28T20:58:01;99898.66;;;9.71;74.44
32474;BME280;41885;53.190;7.984;2022-09-28T21:02:04;99902.69;;;9.67;74.59
32474;BME280;41885;53.190;7.984;2022-09-28T21:06:06;99902.38;;;9.62;74.47
32474;BME280;41885;53.190;7.984;2022-09-28T21:10:09;99894.47;;;9.54;74.62
32474;BME280;41885;53.190;7.984;2022-09-28T21:14:11;99896.84;;;9.49;75.41
32474;BME280;41885;53.190;7.984;2022-09-28T21:18:13;99906.22;;;9.45;74.66
32474;BME280;41885;53.190;7.984;2022-09-28T21:22:15;99906.38;;;9.43;75.23
32474;BME280;41885;53.190;7.984;2022-09-28T21:26:20;99907.75;;;9.39;75.08
32474;BME280;41885;53.190;7.984;2022-09-28T21:30:25;99916.31;;;9.26;75.20
32474;BME280;41885;53.190;7.984;2022-09-28T21:34:26;99918.31;;;9.24;75.62
32474;BME280;41885;53.190;7.984;2022-09-28T21:38:28;99928.97;;;9.24;75.26
32474;BME280;41885;53.190;7.984;2022-09-28T21:42:31;99919.03;;;9.18;74.99
32474;BME280;41885;53.190;7.984;2022-09-28T21:46:33;99922.72;;;9.17;75.77
32474;BME280;41885;53.190;7.984;2022-09-28T21:50:35;99923.25;;;9.13;75.84
32474;BME280;41885;53.190;7.984;2022-09-28T21:54:37;99929.75;;;9.10;76.06
32474;BME280;41885;53.190;7.984;2022-09-28T21:58:42;99926.78;;;9.05;76.07
32474;BME280;41885;53.190;7.984;2022-09-28T22:02:44;99929.97;;;9.00;76.30
32474;BME280;41885;53.190;7.984;2022-09-28T22:06:46;99937.47;;;8.97;76.45
32474;BME280;41885;53.190;7.984;2022-09-28T22:10:56;99935.31;;;8.92;76.49